Time;durP1;ratioP1;P1;durP2;ratioP2;P2;SDS_P1;SDS_P2;PMS_P1;PMS_P2;Temp;Humidity;BMP_temperature;BMP_pressure;BME280_temperature;BME280_humidity;BME280_pressure;Samples;Min_cycle;Max_cycle;Signal;HPM_P1;HPM_P2
2022/03/10 00:01:25;;;;;;;21.03;7.73;;;;;;;;;;6194010;23;20639;-88
2022/03/10 00:04:31;;;;;;;16.27;7.33;;;;;;;;;;6195599;23;20267;-87
2022/03/10 00:07:36;;;;;;;16.33;7.17;;;;;;;;;;6197677;23;20211;-89
2022/03/10 00:10:42;;;;;;;19.97;7.43;;;;;;;;;;6195673;23;20505;-88
2022/03/10 00:13:47;;;;;;;16.57;6.90;;;;;;;;;;6177845;23;20242;-87
2022/03/10 00:16:54;;;;;;;16.13;6.20;;;;;;;;;;6194698;23;20202;-87
2022/03/10 00:19:59;;;;;;;15.50;6.90;;;;;;;;;;6194737;23;20195;-88
2022/03/10 00:23:04;;;;;;;22.03;7.10;;;;;;;;;;6195244;23;20307;-89
2022/03/10 00:26:09;;;;;;;18.27;6.80;;;;;;;;;;6177115;23;20171;-88
2022/03/10 00:29:14;;;;;;;19.00;6.37;;;;;;;;;;6195980;23;20168;-88
2022/03/10 00:32:20;;;;;;;18.73;7.30;;;;;;;;;;6195172;23;20167;-90
2022/03/10 00:35:26;;;;;;;14.97;6.73;;;;;;;;;;6194186;23;20219;-88
2022/03/10 00:38:31;;;;;;;24.13;7.73;;;;;;;;;;6196409;23;20263;-88
2022/03/10 00:41:36;;;;;;;18.07;7.83;;;;;;;;;;6179478;23;20614;-88
2022/03/10 00:44:41;;;;;;;23.30;7.97;;;;;;;;;;6196800;23;20243;-88
2022/03/10 00:47:48;;;;;;;18.17;7.40;;;;;;;;;;6196255;23;20510;-89
2022/03/10 00:50:53;;;;;;;18.83;7.30;;;;;;;;;;6178422;23;20184;-88
2022/03/10 00:53:58;;;;;;;19.27;7.90;;;;;;;;;;6197398;23;20233;-86
2022/03/10 00:57:03;;;;;;;18.40;6.80;;;;;;;;;;6195993;23;20208;-89
2022/03/10 01:00:09;;;;;;;26.17;7.60;;;;;;;;;;6178586;23;20743;-87
2022/03/10 01:03:15;;;;;;;19.87;7.63;;;;;;;;;;6194672;23;20299;-90
2022/03/10 01:06:20;;;;;;;21.57;7.47;;;;;;;;;;6194248;23;20168;-88
2022/03/10 01:09:26;;;;;;;18.23;7.30;;;;;;;;;;6195041;23;20168;-86
2022/03/10 01:12:31;;;;;;;17.77;6.87;;;;;;;;;;6196013;23;20160;-90
2022/03/10 01:15:36;;;;;;;17.43;6.80;;;;;;;;;;6182742;23;20192;-89
2022/03/10 01:18:43;;;;;;;19.07;7.73;;;;;;;;;;6163939;23;20231;-87
2022/03/10 01:21:48;;;;;;;20.73;7.37;;;;;;;;;;6164488;23;20167;-90
2022/03/10 01:24:53;;;;;;;17.10;7.30;;;;;;;;;;6164999;23;20224;-87
2022/03/10 01:27:58;;;;;;;16.20;6.80;;;;;;;;;;6164505;23;20172;-87
2022/03/10 01:31:02;;;;;;;16.67;7.53;;;;;;;;;;6165177;23;20183;-88
2022/03/10 01:34:09;;;;;;;16.67;6.20;;;;;;;;;;6166618;23;20176;-88
2022/03/10 01:37:14;;;;;;;16.13;7.33;;;;;;;;;;6164955;23;20176;-88
2022/03/10 01:40:20;;;;;;;16.23;6.93;;;;;;;;;;6164271;23;20200;-88
2022/03/10 01:43:26;;;;;;;17.10;6.87;;;;;;;;;;6165147;23;20173;-86
2022/03/10 01:46:31;;;;;;;17.70;6.83;;;;;;;;;;6165243;23;20289;-87
2022/03/10 01:49:37;;;;;;;18.27;6.80;;;;;;;;;;6166457;23;20164;-87
2022/03/10 01:52:42;;;;;;;19.23;7.40;;;;;;;;;;6166506;23;20172;-88
2022/03/10 01:55:48;;;;;;;22.63;6.40;;;;;;;;;;6164524;23;20521;-89
2022/03/10 01:58:54;;;;;;;17.53;6.80;;;;;;;;;;6167397;23;20312;-88
2022/03/10 02:02:00;;;;;;;17.90;6.73;;;;;;;;;;6150128;23;20172;-89
2022/03/10 02:05:07;;;;;;;16.67;7.00;;;;;;;;;;6165700;23;20177;-89
2022/03/10 02:11:35;;;;;;;19.40;7.97;;;;;;;;;;6186187;23;20241;-90
2022/03/10 02:18:05;;;;;;;18.77;7.03;;;;;;;;;;6187218;23;20168;-90
2022/03/10 02:21:14;;;;;;;15.60;6.53;;;;;;;;;;6169906;23;20624;-90
2022/03/10 02:24:20;;;;;;;20.77;7.50;;;;;;;;;;6167608;23;20231;-89
2022/03/10 02:27:26;;;;;;;19.57;6.93;;;;;;;;;;6168677;23;20176;-89
2022/03/10 02:30:31;;;;;;;17.87;7.10;;;;;;;;;;6169656;23;20171;-90
2022/03/10 02:33:36;;;;;;;19.63;6.60;;;;;;;;;;6170001;23;20168;-87
2022/03/10 02:36:41;;;;;;;18.30;7.77;;;;;;;;;;6170182;23;20172;-88
2022/03/10 02:39:48;;;;;;;17.93;7.30;;;;;;;;;;6169734;23;20180;-88
2022/03/10 02:42:53;;;;;;;20.73;7.30;;;;;;;;;;6170839;23;20245;-88
2022/03/10 02:45:58;;;;;;;16.63;6.30;;;;;;;;;;6170286;23;20172;-86
2022/03/10 02:49:03;;;;;;;17.60;6.70;;;;;;;;;;6168959;23;20227;-87
2022/03/10 02:52:08;;;;;;;18.43;7.17;;;;;;;;;;6169652;23;20217;-91
2022/03/10 02:55:15;;;;;;;17.87;6.83;;;;;;;;;;6168993;23;20172;-90
2022/03/10 02:58:20;;;;;;;16.97;7.00;;;;;;;;;;6169572;23;20176;-88
2022/03/10 03:01:26;;;;;;;17.47;7.63;;;;;;;;;;6168720;23;20189;-88
2022/03/10 03:04:31;;;;;;;19.20;7.30;;;;;;;;;;6169184;23;20228;-90
2022/03/10 03:07:37;;;;;;;22.50;6.87;;;;;;;;;;6165880;23;20193;-89
2022/03/10 03:10:44;;;;;;;15.07;6.23;;;;;;;;;;6166651;23;20168;-89
2022/03/10 03:13:49;;;;;;;15.23;6.23;;;;;;;;;;6173541;23;20179;-90
2022/03/10 03:16:56;;;;;;;17.30;7.33;;;;;;;;;;6200450;23;20175;-86
2022/03/10 03:20:01;;;;;;;16.23;6.57;;;;;;;;;;6181631;23;20199;-90
2022/03/10 03:23:06;;;;;;;21.50;7.47;;;;;;;;;;6197412;23;20172;-87
2022/03/10 03:26:13;;;;;;;17.03;7.30;;;;;;;;;;6197962;23;20196;-89
2022/03/10 03:29:18;;;;;;;17.13;7.47;;;;;;;;;;6179026;23;20168;-88
2022/03/10 03:32:23;;;;;;;18.37;6.77;;;;;;;;;;6179764;23;20246;-89
2022/03/10 03:35:31;;;;;;;17.90;6.87;;;;;;;;;;6181526;23;20176;-88
2022/03/10 03:38:36;;;;;;;18.50;7.13;;;;;;;;;;6196097;23;20176;-87
2022/03/10 03:41:43;;;;;;;20.57;7.10;;;;;;;;;;6197461;23;20172;-89
2022/03/10 03:44:48;;;;;;;19.80;6.90;;;;;;;;;;6196105;23;20167;-88
2022/03/10 03:47:54;;;;;;;22.80;7.00;;;;;;;;;;6197227;23;20348;-87
2022/03/10 03:50:59;;;;;;;19.50;6.57;;;;;;;;;;6197759;23;20152;-87
2022/03/10 03:54:05;;;;;;;14.27;6.43;;;;;;;;;;6197381;23;20527;-89
2022/03/10 03:57:12;;;;;;;16.03;6.73;;;;;;;;;;6179110;23;20195;-88
2022/03/10 04:00:17;;;;;;;18.73;7.17;;;;;;;;;;6179705;23;20191;-89
2022/03/10 04:03:22;;;;;;;17.77;7.20;;;;;;;;;;6196163;23;20219;-86
2022/03/10 04:06:28;;;;;;;17.40;6.60;;;;;;;;;;6179633;23;20243;-89
2022/03/10 04:09:33;;;;;;;14.83;6.43;;;;;;;;;;6181077;23;20282;-90
2022/03/10 04:12:39;;;;;;;17.70;7.60;;;;;;;;;;6197020;23;20172;-87
2022/03/10 04:15:44;;;;;;;16.73;7.10;;;;;;;;;;6184110;23;20640;-88
2022/03/10 04:18:49;;;;;;;19.20;7.53;;;;;;;;;;6167626;23;20179;-86
2022/03/10 04:21:54;;;;;;;16.63;7.00;;;;;;;;;;6166283;23;20172;-88
2022/03/10 04:24:59;;;;;;;20.00;7.00;;;;;;;;;;6167191;23;20171;-89
2022/03/10 04:28:06;;;;;;;17.33;7.30;;;;;;;;;;6166895;23;20202;-88
2022/03/10 04:31:11;;;;;;;18.73;7.50;;;;;;;;;;6164686;23;20164;-88
2022/03/10 04:34:16;;;;;;;20.87;8.13;;;;;;;;;;6164319;23;20300;-88
2022/03/10 04:37:21;;;;;;;22.53;8.73;;;;;;;;;;6165338;23;20168;-87
2022/03/10 04:40:26;;;;;;;28.47;9.37;;;;;;;;;;6164071;23;20196;-89
2022/03/10 04:43:33;;;;;;;25.23;8.47;;;;;;;;;;6163934;23;20224;-88
2022/03/10 04:46:38;;;;;;;19.70;8.33;;;;;;;;;;6164981;23;20152;-89
2022/03/10 04:49:43;;;;;;;29.30;9.70;;;;;;;;;;6165348;23;20245;-89
2022/03/10 04:52:49;;;;;;;27.87;9.33;;;;;;;;;;6165118;23;20619;-88
2022/03/10 04:55:54;;;;;;;27.40;9.23;;;;;;;;;;6164231;23;20220;-89
2022/03/10 04:59:00;;;;;;;23.00;8.53;;;;;;;;;;6167187;23;20180;-88
2022/03/10 05:02:08;;;;;;;23.47;8.40;;;;;;;;;;6165717;23;20176;-87
2022/03/10 05:05:14;;;;;;;20.60;7.73;;;;;;;;;;6164875;23;20749;-89
2022/03/10 05:08:19;;;;;;;28.20;9.70;;;;;;;;;;6166649;23;20165;-89
2022/03/10 05:11:24;;;;;;;26.23;9.33;;;;;;;;;;6165421;23;20199;-88
2022/03/10 05:14:31;;;;;;;21.87;8.63;;;;;;;;;;6176789;23;20194;-88
2022/03/10 05:17:36;;;;;;;20.57;8.30;;;;;;;;;;6193563;23;20619;-87
2022/03/10 05:20:41;;;;;;;19.50;8.00;;;;;;;;;;6195349;23;20176;-89
2022/03/10 05:23:46;;;;;;;23.03;8.00;;;;;;;;;;6178456;23;20498;-89
2022/03/10 05:26:51;;;;;;;20.27;6.97;;;;;;;;;;6194214;23;20490;-88
2022/03/10 05:29:57;;;;;;;23.43;8.13;;;;;;;;;;6177698;23;20176;-88
2022/03/10 05:33:02;;;;;;;22.63;8.20;;;;;;;;;;6195584;23;20167;-89
2022/03/10 05:36:07;;;;;;;22.30;7.27;;;;;;;;;;6192155;23;20240;-88
2022/03/10 05:39:13;;;;;;;20.73;7.23;;;;;;;;;;6175779;23;20187;-89
2022/03/10 05:42:17;;;;;;;17.53;6.73;;;;;;;;;;6179314;23;20171;-88
2022/03/10 05:45:25;;;;;;;20.67;7.43;;;;;;;;;;6196024;23;20288;-90
2022/03/10 05:48:30;;;;;;;18.17;7.27;;;;;;;;;;6196803;23;20172;-87
2022/03/10 05:51:36;;;;;;;17.33;6.87;;;;;;;;;;6182372;23;20175;-89
2022/03/10 05:54:41;;;;;;;21.30;7.87;;;;;;;;;;6197187;23;20176;-88
2022/03/10 05:57:47;;;;;;;16.10;6.60;;;;;;;;;;6199530;23;20168;-91
2022/03/10 06:00:53;;;;;;;20.33;6.37;;;;;;;;;;6198288;23;20235;-90
2022/03/10 06:03:58;;;;;;;19.17;7.03;;;;;;;;;;6198715;23;20171;-88
2022/03/10 06:07:12;;;;;;;20.27;7.07;;;;;;;;;;6197092;23;20200;-90
2022/03/10 06:10:17;;;;;;;25.07;8.23;;;;;;;;;;6179151;23;20256;-90
2022/03/10 06:13:22;;;;;;;31.57;12.97;;;;;;;;;;6180165;23;20215;-89
2022/03/10 06:16:29;;;;;;;20.73;6.13;;;;;;;;;;6180058;23;20176;-87
2022/03/10 06:19:34;;;;;;;20.67;7.60;;;;;;;;;;6197954;23;20171;-87
2022/03/10 06:22:39;;;;;;;26.10;7.03;;;;;;;;;;6180325;23;20245;-88
2022/03/10 06:25:45;;;;;;;26.27;7.43;;;;;;;;;;6198720;23;20175;-90
2022/03/10 06:28:49;;;;;;;15.60;6.57;;;;;;;;;;6195783;23;20167;-89
2022/03/10 06:31:56;;;;;;;19.27;7.17;;;;;;;;;;6202128;23;20160;-90
2022/03/10 06:35:01;;;;;;;18.97;7.23;;;;;;;;;;6182850;23;20308;-88
2022/03/10 06:38:06;;;;;;;20.90;7.40;;;;;;;;;;6200515;23;20186;-89
2022/03/10 06:41:12;;;;;;;20.20;7.23;;;;;;;;;;6181592;23;20618;-87
2022/03/10 06:44:17;;;;;;;17.83;6.90;;;;;;;;;;6199214;23;20180;-89
2022/03/10 06:47:24;;;;;;;17.97;7.03;;;;;;;;;;6180512;23;20168;-89
2022/03/10 06:50:29;;;;;;;22.30;7.43;;;;;;;;;;6199930;23;20191;-89
2022/03/10 06:53:34;;;;;;;17.30;7.40;;;;;;;;;;6198831;23;20176;-89
2022/03/10 06:56:39;;;;;;;26.80;8.63;;;;;;;;;;6196121;23;20239;-89
2022/03/10 06:59:44;;;;;;;17.50;7.10;;;;;;;;;;6180416;23;20550;-88
2022/03/10 07:02:52;;;;;;;18.03;6.93;;;;;;;;;;6179599;23;20176;-90
2022/03/10 07:05:58;;;;;;;16.10;6.80;;;;;;;;;;6198806;23;20176;-87
2022/03/10 07:09:04;;;;;;;20.67;8.47;;;;;;;;;;6199694;23;20198;-87
2022/03/10 07:12:10;;;;;;;23.40;8.13;;;;;;;;;;6197851;23;20618;-87
2022/03/10 07:15:15;;;;;;;20.13;7.90;;;;;;;;;;6183566;23;20192;-88
2022/03/10 07:18:22;;;;;;;21.93;8.17;;;;;;;;;;6166851;23;20252;-89
2022/03/10 07:21:27;;;;;;;19.73;8.20;;;;;;;;;;6165786;23;20168;-88
2022/03/10 07:24:32;;;;;;;21.67;8.60;;;;;;;;;;6164842;23;20172;-90
2022/03/10 07:27:37;;;;;;;18.43;7.37;;;;;;;;;;6168634;23;20220;-88
2022/03/10 07:30:42;;;;;;;16.53;7.40;;;;;;;;;;6166852;23;20195;-88
2022/03/10 07:33:48;;;;;;;16.07;7.13;;;;;;;;;;6167501;23;20176;-90
2022/03/10 07:36:53;;;;;;;20.13;7.40;;;;;;;;;;6168824;23;20172;-88
2022/03/10 07:39:59;;;;;;;26.97;8.77;;;;;;;;;;6170134;23;20172;-89
2022/03/10 08:03:19;;;;;;;19.77;8.27;;;;;;;;;;6187819;23;20216;-91
2022/03/10 08:06:26;;;;;;;23.07;8.93;;;;;;;;;;6181031;23;20217;-90
2022/03/10 08:09:30;;;;;;;22.23;8.60;;;;;;;;;;6182004;23;20172;-90
2022/03/10 08:12:38;;;;;;;22.27;9.10;;;;;;;;;;6183626;23;20176;-88
2022/03/10 08:15:43;;;;;;;21.67;7.97;;;;;;;;;;6180121;23;20163;-88
2022/03/10 08:18:50;;;;;;;23.20;9.10;;;;;;;;;;6181014;23;20822;-88
2022/03/10 08:21:55;;;;;;;19.70;8.73;;;;;;;;;;6183191;23;20216;-89
2022/03/10 08:25:01;;;;;;;25.87;8.60;;;;;;;;;;6183140;23;20176;-88
2022/03/10 08:28:06;;;;;;;19.03;8.03;;;;;;;;;;6182108;23;20171;-88
2022/03/10 08:31:11;;;;;;;24.13;8.80;;;;;;;;;;6182532;23;20194;-90
2022/03/10 08:34:17;;;;;;;25.93;9.10;;;;;;;;;;6183353;23;20238;-88
2022/03/10 08:37:23;;;;;;;19.33;8.90;;;;;;;;;;6183934;23;20258;-88
2022/03/10 08:40:28;;;;;;;20.33;7.87;;;;;;;;;;6185321;23;20174;-90
2022/03/10 08:43:34;;;;;;;19.70;7.63;;;;;;;;;;6184858;23;20168;-90
2022/03/10 08:46:39;;;;;;;18.60;8.03;;;;;;;;;;6183881;23;20264;-89
2022/03/10 08:53:08;;;;;;;21.17;8.80;;;;;;;;;;6183768;23;20191;-88
2022/03/10 08:56:16;;;;;;;21.93;7.80;;;;;;;;;;6184162;23;20175;-90
2022/03/10 08:59:22;;;;;;;24.83;9.07;;;;;;;;;;6181514;23;20172;-89
2022/03/10 09:02:28;;;;;;;31.53;9.10;;;;;;;;;;6170732;23;20236;-90
2022/03/10 09:05:36;;;;;;;22.47;8.47;;;;;;;;;;6170395;23;20200;-90
2022/03/10 09:08:42;;;;;;;24.30;8.60;;;;;;;;;;6168780;23;20169;-88
2022/03/10 09:11:48;;;;;;;23.07;8.73;;;;;;;;;;6171720;23;20236;-89
2022/03/10 09:14:54;;;;;;;20.60;8.07;;;;;;;;;;6169299;23;20500;-90
2022/03/10 09:18:00;;;;;;;19.43;6.90;;;;;;;;;;6170406;23;20152;-90
2022/03/10 09:21:07;;;;;;;20.37;8.30;;;;;;;;;;6170467;23;20480;-90
2022/03/10 09:24:12;;;;;;;24.13;7.77;;;;;;;;;;6169283;23;20171;-90
2022/03/10 09:27:18;;;;;;;24.07;7.80;;;;;;;;;;6169949;23;20817;-89
2022/03/10 09:30:23;;;;;;;21.53;7.27;;;;;;;;;;6170986;23;20176;-89
2022/03/10 09:33:29;;;;;;;21.97;7.27;;;;;;;;;;6170160;23;20177;-88
2022/03/10 09:36:36;;;;;;;15.37;5.70;;;;;;;;;;6172000;23;20172;-89
2022/03/10 09:39:41;;;;;;;11.10;5.40;;;;;;;;;;6166379;23;20219;-89
2022/03/10 09:42:49;;;;;;;12.63;4.90;;;;;;;;;;6169318;23;20176;-87
2022/03/10 09:45:54;;;;;;;14.17;4.17;;;;;;;;;;6168903;23;20201;-89
2022/03/10 09:48:59;;;;;;;12.47;4.87;;;;;;;;;;6167891;23;20175;-87
2022/03/10 09:52:08;;;;;;;11.93;5.10;;;;;;;;;;6168303;23;20236;-89
2022/03/10 09:55:13;;;;;;;35.37;6.47;;;;;;;;;;6169604;23;20175;-90
2022/03/10 09:58:18;;;;;;;10.30;4.63;;;;;;;;;;6169681;23;20168;-88
2022/03/10 10:01:23;;;;;;;54.37;8.40;;;;;;;;;;6172667;23;20164;-88
2022/03/10 10:04:30;;;;;;;11.75;5.28;;;;;;;;;;6181881;23;20552;-88
2022/03/10 10:07:36;;;;;;;9.70;4.18;;;;;;;;;;6182369;23;20172;-89
2022/03/10 10:10:44;;;;;;;10.32;3.97;;;;;;;;;;6179905;23;20192;-87
2022/03/10 10:13:51;;;;;;;10.17;4.10;;;;;;;;;;6178982;23;20164;-88
2022/03/10 10:16:59;;;;;;;18.92;5.55;;;;;;;;;;6180628;23;20207;-88
2022/03/10 10:20:05;;;;;;;9.10;4.00;;;;;;;;;;6177023;23;20172;-88
2022/03/10 10:23:18;;;;;;;10.25;3.60;;;;;;;;;;6178781;23;20223;-89
2022/03/10 10:26:28;;;;;;;9.18;3.75;;;;;;;;;;6180874;23;20169;-89
2022/03/10 10:29:34;;;;;;;9.10;3.88;;;;;;;;;;6179366;23;20167;-89
2022/03/10 10:32:48;;;;;;;13.13;4.00;;;;;;;;;;6178714;23;20262;-89
2022/03/10 10:35:56;;;;;;;14.85;4.50;;;;;;;;;;6180712;23;20175;-88
2022/03/10 10:39:10;;;;;;;11.43;3.80;;;;;;;;;;6181952;23;20163;-90
2022/03/10 10:42:17;;;;;;;8.48;3.97;;;;;;;;;;6181040;23;20233;-87
2022/03/10 10:45:29;;;;;;;8.50;3.35;;;;;;;;;;6182522;23;20200;-87
2022/03/10 10:48:47;;;;;;;8.65;3.55;;;;;;;;;;6181256;23;20505;-89
2022/03/10 10:51:53;;;;;;;10.75;4.00;;;;;;;;;;6182878;23;20588;-87
2022/03/10 10:55:07;;;;;;;7.65;3.63;;;;;;;;;;6179892;23;20172;-86
2022/03/10 10:58:13;;;;;;;9.25;3.55;;;;;;;;;;6181257;23;20156;-89
2022/03/10 11:01:27;;;;;;;6.78;3.03;;;;;;;;;;6181813;23;20176;-89
2022/03/10 11:04:32;;;;;;;7.72;3.55;;;;;;;;;;6183180;23;20171;-89
2022/03/10 11:07:38;;;;;;;9.50;3.75;;;;;;;;;;6166035;23;20256;-88
2022/03/10 11:10:45;;;;;;;8.20;3.55;;;;;;;;;;6162734;23;20171;-89
2022/03/10 11:13:50;;;;;;;7.82;3.30;;;;;;;;;;6182327;23;20204;-88
2022/03/10 11:16:56;;;;;;;14.63;3.65;;;;;;;;;;6183035;23;20172;-88
2022/03/10 11:20:03;;;;;;;7.82;2.75;;;;;;;;;;6182650;23;20608;-90
2022/03/10 11:23:14;;;;;;;8.48;3.30;;;;;;;;;;6181578;23;20171;-90
2022/03/10 11:26:25;;;;;;;6.22;2.78;;;;;;;;;;6177703;23;20259;-88
2022/03/10 11:29:34;;;;;;;6.60;2.83;;;;;;;;;;6179233;23;20200;-89
2022/03/10 11:32:38;;;;;;;26.20;4.22;;;;;;;;;;6181221;23;20195;-90
2022/03/10 11:35:44;;;;;;;9.57;3.08;;;;;;;;;;6183222;23;20187;-88
2022/03/10 11:38:54;;;;;;;7.05;3.28;;;;;;;;;;6181141;23;20171;-88
2022/03/10 11:42:21;;;;;;;10.43;2.72;;;;;;;;;;6178851;23;20486;-88
2022/03/10 11:45:29;;;;;;;6.65;3.13;;;;;;;;;;6180250;23;20192;-88
2022/03/10 11:48:36;;;;;;;8.00;3.25;;;;;;;;;;6178788;23;20284;-90
2022/03/10 11:51:45;;;;;;;9.68;2.95;;;;;;;;;;6178099;23;20326;-89
2022/03/10 11:55:03;;;;;;;7.03;3.42;;;;;;;;;;6180378;23;20167;-89
2022/03/10 11:58:15;;;;;;;8.85;3.50;;;;;;;;;;6179835;23;20255;-89
2022/03/10 12:01:20;;;;;;;5.55;2.65;;;;;;;;;;6181114;23;20171;-88
2022/03/10 12:04:35;;;;;;;7.40;2.72;;;;;;;;;;6181142;23;20255;-88
2022/03/10 12:07:44;;;;;;;8.43;3.30;;;;;;;;;;6183135;23;20234;-88
2022/03/10 12:10:49;;;;;;;9.23;3.03;;;;;;;;;;6180768;23;20241;-88
2022/03/10 12:13:56;;;;;;;9.32;2.60;;;;;;;;;;6181731;23;20235;-88
2022/03/10 12:17:01;;;;;;;9.88;3.08;;;;;;;;;;6181178;23;20241;-89
2022/03/10 12:20:13;;;;;;;8.15;3.13;;;;;;;;;;6182451;23;20171;-89
2022/03/10 12:23:19;;;;;;;13.98;2.85;;;;;;;;;;6181775;23;20204;-89
2022/03/10 12:26:29;;;;;;;5.32;2.72;;;;;;;;;;6181222;23;20494;-89
2022/03/10 12:29:36;;;;;;;17.80;3.03;;;;;;;;;;6181287;23;20227;-88
2022/03/10 12:32:46;;;;;;;4.70;2.35;;;;;;;;;;6200321;23;20239;-90
2022/03/10 12:35:55;;;;;;;8.07;2.40;;;;;;;;;;6183097;23;20187;-89
2022/03/10 12:39:02;;;;;;;8.38;2.97;;;;;;;;;;6184382;23;20192;-89
2022/03/10 12:42:08;;;;;;;10.02;2.55;;;;;;;;;;6182578;23;20164;-89
2022/03/10 12:45:15;;;;;;;4.90;1.77;;;;;;;;;;6178845;23;20176;-89
2022/03/10 12:48:23;;;;;;;5.32;2.42;;;;;;;;;;6180274;23;20167;-90
2022/03/10 12:51:30;;;;;;;4.97;2.53;;;;;;;;;;6178952;23;20192;-89
2022/03/10 12:54:38;;;;;;;3.50;1.70;;;;;;;;;;6178956;23;20241;-89
2022/03/10 12:57:43;;;;;;;6.32;1.95;;;;;;;;;;6179766;23;20176;-88
2022/03/10 13:00:50;;;;;;;3.95;2.03;;;;;;;;;;6179058;23;20168;-89
2022/03/10 13:03:56;;;;;;;7.60;2.00;;;;;;;;;;6177997;23;20616;-90
2022/03/10 13:07:01;;;;;;;6.70;1.85;;;;;;;;;;6180744;23;20172;-89
2022/03/10 13:10:09;;;;;;;4.97;2.30;;;;;;;;;;6178548;23;20171;-90
2022/03/10 13:13:28;;;;;;;4.55;1.98;;;;;;;;;;6178399;23;20243;-91
2022/03/10 13:16:35;;;;;;;5.90;2.45;;;;;;;;;;6198055;23;20265;-89
2022/03/10 13:19:41;;;;;;;9.77;2.80;;;;;;;;;;6179420;23;20171;-89
2022/03/10 13:22:46;;;;;;;6.57;2.30;;;;;;;;;;6178952;23;20172;-90
2022/03/10 13:25:52;;;;;;;4.90;2.17;;;;;;;;;;6180786;23;20184;-89
2022/03/10 13:28:57;;;;;;;4.57;1.65;;;;;;;;;;6180235;23;20199;-88
2022/03/10 13:32:04;;;;;;;5.85;2.17;;;;;;;;;;6180022;23;20231;-87
2022/03/10 13:35:09;;;;;;;6.50;2.60;;;;;;;;;;6180610;23;20296;-89
2022/03/10 13:38:18;;;;;;;7.43;2.88;;;;;;;;;;6182176;23;20171;-89
2022/03/10 13:41:23;;;;;;;6.30;2.78;;;;;;;;;;6180844;23;20176;-88
2022/03/10 13:44:29;;;;;;;7.00;3.08;;;;;;;;;;6178446;23;20191;-89
2022/03/10 13:47:51;;;;;;;7.32;3.10;;;;;;;;;;6180249;23;20201;-90
2022/03/10 13:50:56;;;;;;;5.93;2.70;;;;;;;;;;6179058;23;20171;-87
2022/03/10 13:54:02;;;;;;;5.63;2.58;;;;;;;;;;6178836;23;20156;-89
2022/03/10 13:57:08;;;;;;;6.00;2.90;;;;;;;;;;6177721;23;20196;-90
2022/03/10 14:00:13;;;;;;;8.05;3.20;;;;;;;;;;6177955;23;20155;-88
2022/03/10 14:03:21;;;;;;;7.85;3.33;;;;;;;;;;6165161;23;20192;-87
2022/03/10 14:06:26;;;;;;;7.13;3.22;;;;;;;;;;6168281;23;20303;-88
2022/03/10 14:09:31;;;;;;;19.63;4.13;;;;;;;;;;6169146;23;20172;-87
2022/03/10 14:12:37;;;;;;;11.57;3.30;;;;;;;;;;6169095;23;20192;-88
2022/03/10 14:15:45;;;;;;;7.28;3.70;;;;;;;;;;6170874;23;20168;-88
2022/03/10 14:18:52;;;;;;;6.45;2.97;;;;;;;;;;6172943;23;20172;-88
2022/03/10 14:22:00;;;;;;;6.80;3.20;;;;;;;;;;6172992;23;20195;-90
2022/03/10 14:25:12;;;;;;;7.88;3.13;;;;;;;;;;6171053;23;20172;-89
2022/03/10 14:28:18;;;;;;;7.95;3.75;;;;;;;;;;6168992;23;20212;-91
2022/03/10 14:31:26;;;;;;;9.80;3.72;;;;;;;;;;6171656;23;20152;-89
2022/03/10 14:34:32;;;;;;;10.63;3.25;;;;;;;;;;6173180;23;20172;-90
2022/03/10 14:37:38;;;;;;;5.93;3.17;;;;;;;;;;6169821;23;20181;-90
2022/03/10 14:40:43;;;;;;;8.93;3.25;;;;;;;;;;6169634;23;20171;-89
2022/03/10 14:43:48;;;;;;;10.13;3.50;;;;;;;;;;6170422;23;20212;-89
2022/03/10 14:46:53;;;;;;;9.30;3.13;;;;;;;;;;6167070;23;20179;-87
2022/03/10 14:50:00;;;;;;;10.50;2.92;;;;;;;;;;6169492;23;20501;-87
2022/03/10 14:53:06;;;;;;;7.97;3.42;;;;;;;;;;6172180;23;20235;-89
2022/03/10 14:56:15;;;;;;;8.70;3.70;;;;;;;;;;6169518;23;20180;-88
2022/03/10 14:59:20;;;;;;;5.90;3.25;;;;;;;;;;6168587;23;20169;-90
2022/03/10 15:02:26;;;;;;;6.90;3.45;;;;;;;;;;6169838;23;20267;-90
2022/03/10 15:05:32;;;;;;;7.57;3.55;;;;;;;;;;6172256;23;20169;-89
2022/03/10 15:08:42;;;;;;;8.63;3.92;;;;;;;;;;6170255;23;20169;-89
2022/03/10 15:11:49;;;;;;;7.28;3.53;;;;;;;;;;6170969;23;20173;-89
2022/03/10 15:14:55;;;;;;;7.55;3.30;;;;;;;;;;6172229;23;20168;-88
2022/03/10 15:18:01;;;;;;;6.50;3.40;;;;;;;;;;6175297;23;20176;-88
2022/03/10 15:21:10;;;;;;;7.97;3.25;;;;;;;;;;6173394;23;20148;-88
2022/03/10 15:24:16;;;;;;;6.85;3.90;;;;;;;;;;6171905;23;20172;-88
2022/03/10 15:27:22;;;;;;;7.20;3.45;;;;;;;;;;6171227;23;20168;-91
2022/03/10 15:30:29;;;;;;;8.63;3.88;;;;;;;;;;6173945;23;20223;-89
2022/03/10 15:33:34;;;;;;;9.10;4.78;;;;;;;;;;6169249;23;20176;-89
2022/03/10 15:36:40;;;;;;;10.93;4.97;;;;;;;;;;6171552;23;20165;-90
2022/03/10 15:39:46;;;;;;;9.95;4.95;;;;;;;;;;6170627;23;20201;-89
2022/03/10 15:42:51;;;;;;;11.63;5.57;;;;;;;;;;6173373;23;20188;-90
2022/03/10 15:45:57;;;;;;;13.55;5.70;;;;;;;;;;6172600;23;20177;-90
2022/03/10 15:49:03;;;;;;;14.68;5.93;;;;;;;;;;6170417;23;20252;-90
2022/03/10 15:52:16;;;;;;;11.73;5.50;;;;;;;;;;6170668;23;20177;-88
2022/03/10 15:55:22;;;;;;;13.73;5.88;;;;;;;;;;6169289;23;20165;-89
2022/03/10 15:58:27;;;;;;;16.25;6.00;;;;;;;;;;6169288;23;20172;-87
2022/03/10 16:01:36;;;;;;;16.77;6.80;;;;;;;;;;6176908;23;20223;-88
2022/03/10 16:04:41;;;;;;;19.65;7.55;;;;;;;;;;6181925;23;20168;-88
2022/03/10 16:07:49;;;;;;;19.80;7.38;;;;;;;;;;6182017;23;20655;-88
2022/03/10 16:10:58;;;;;;;12.07;6.95;;;;;;;;;;6187112;23;20172;-91
2022/03/10 16:14:04;;;;;;;18.05;7.15;;;;;;;;;;6184707;23;20176;-89
2022/03/10 16:17:16;;;;;;;23.25;7.40;;;;;;;;;;6183994;23;20175;-90
2022/03/10 16:20:24;;;;;;;21.17;7.22;;;;;;;;;;6182677;23;20168;-86
2022/03/10 16:23:44;;;;;;;17.02;7.00;;;;;;;;;;6182411;23;20564;-87
2022/03/10 16:26:51;;;;;;;21.17;8.85;;;;;;;;;;6181378;23;20233;-86
2022/03/10 16:29:57;;;;;;;16.85;7.55;;;;;;;;;;6183338;23;20180;-89
2022/03/10 16:33:02;;;;;;;19.45;7.35;;;;;;;;;;6180403;23;20475;-90
2022/03/10 16:36:08;;;;;;;20.70;8.68;;;;;;;;;;6183734;23;20220;-87
2022/03/10 16:39:18;;;;;;;18.38;7.80;;;;;;;;;;6180400;23;20179;-90
2022/03/10 16:42:29;;;;;;;20.42;8.05;;;;;;;;;;6182447;23;20180;-88
2022/03/10 16:45:33;;;;;;;18.30;8.00;;;;;;;;;;6182032;23;20252;-90
2022/03/10 16:48:39;;;;;;;17.67;7.40;;;;;;;;;;6181836;23;20171;-89
2022/03/10 16:51:44;;;;;;;20.55;7.90;;;;;;;;;;6184657;23;20215;-86
2022/03/10 16:54:51;;;;;;;18.83;7.80;;;;;;;;;;6181920;23;20171;-88
2022/03/10 16:57:59;;;;;;;19.05;8.20;;;;;;;;;;6181989;23;20156;-89
2022/03/10 17:01:04;;;;;;;18.30;8.30;;;;;;;;;;6183413;23;20167;-87
2022/03/10 17:04:09;;;;;;;20.00;8.32;;;;;;;;;;6153338;23;20215;-89
2022/03/10 17:07:15;;;;;;;29.60;8.85;;;;;;;;;;6153328;23;20208;-88
2022/03/10 17:10:20;;;;;;;22.45;8.45;;;;;;;;;;6172457;23;20173;-90
2022/03/10 17:13:27;;;;;;;23.67;9.70;;;;;;;;;;6168289;23;20207;-90
2022/03/10 17:17:11;;;;;;;24.97;9.03;;;;;;;;;;6168629;23;20169;-91
2022/03/10 17:20:16;;;;;;;26.23;9.00;;;;;;;;;;6171986;23;20228;-88
2022/03/10 17:23:24;;;;;;;22.73;9.63;;;;;;;;;;6171238;23;20529;-88
2022/03/10 17:26:30;;;;;;;25.70;10.13;;;;;;;;;;6148402;23;20180;-89
2022/03/10 17:29:38;;;;;;;26.50;11.20;;;;;;;;;;6151312;23;20176;-88
2022/03/10 17:32:45;;;;;;;33.43;11.93;;;;;;;;;;6166328;23;20171;-87
2022/03/10 17:35:50;;;;;;;28.47;10.13;;;;;;;;;;6169258;23;20240;-88
2022/03/10 17:38:55;;;;;;;29.47;11.43;;;;;;;;;;6153142;23;20176;-89
2022/03/10 17:42:00;;;;;;;25.53;11.87;;;;;;;;;;6169912;23;20164;-89
2022/03/10 17:45:08;;;;;;;30.47;12.33;;;;;;;;;;6172160;23;20180;-87
2022/03/10 17:48:16;;;;;;;30.53;14.07;;;;;;;;;;6154792;23;20220;-88
2022/03/10 17:51:21;;;;;;;36.40;15.13;;;;;;;;;;6172541;23;20168;-90
2022/03/10 17:54:26;;;;;;;28.83;13.40;;;;;;;;;;6172456;23;20163;-90
2022/03/10 17:57:31;;;;;;;41.90;15.60;;;;;;;;;;6172302;23;20168;-90
2022/03/10 18:00:39;;;;;;;36.87;15.33;;;;;;;;;;6154790;23;20177;-90
2022/03/10 18:03:44;;;;;;;35.63;14.27;;;;;;;;;;6172806;23;20191;-88
2022/03/10 18:06:52;;;;;;;36.37;16.03;;;;;;;;;;6171379;23;20172;-90
2022/03/10 18:09:57;;;;;;;40.27;15.50;;;;;;;;;;6173802;23;20168;-90
2022/03/10 18:13:04;;;;;;;35.53;14.93;;;;;;;;;;6172552;23;20164;-91
2022/03/10 18:16:11;;;;;;;42.43;16.90;;;;;;;;;;6171821;23;20220;-90
2022/03/10 18:19:16;;;;;;;35.60;16.10;;;;;;;;;;6173822;23;20172;-89
2022/03/10 18:22:22;;;;;;;51.50;17.23;;;;;;;;;;6172742;23;20195;-89
2022/03/10 18:25:27;;;;;;;40.60;15.60;;;;;;;;;;6171648;23;20213;-89
2022/03/10 18:28:33;;;;;;;40.90;17.03;;;;;;;;;;6172756;23;20176;-89
2022/03/10 18:31:39;;;;;;;40.33;16.83;;;;;;;;;;6169490;23;20171;-89
2022/03/10 18:34:45;;;;;;;40.53;17.33;;;;;;;;;;6171156;23;20173;-87
2022/03/10 18:37:50;;;;;;;37.30;16.80;;;;;;;;;;6179168;23;20216;-89
2022/03/10 18:40:55;;;;;;;39.30;16.20;;;;;;;;;;6171731;23;20272;-89
2022/03/10 18:44:01;;;;;;;38.17;16.73;;;;;;;;;;6154376;23;20195;-89
2022/03/10 18:47:08;;;;;;;38.33;15.40;;;;;;;;;;6156081;23;20184;-89
2022/03/10 18:50:14;;;;;;;39.33;16.80;;;;;;;;;;6172107;23;20168;-87
2022/03/10 18:53:19;;;;;;;35.87;16.00;;;;;;;;;;6172566;23;20173;-89